createdAt,value
2023-05-22T00:03:29.412Z,18.52
2023-05-22T00:07:30.987Z,18.74
2023-05-22T00:11:34.732Z,18.58
2023-05-22T00:15:36.157Z,18.53
2023-05-22T00:19:38.185Z,18.46
2023-05-22T00:23:39.718Z,18.55
2023-05-22T00:27:41.206Z,18.56
2023-05-22T00:31:42.667Z,18.47
2023-05-22T00:35:44.256Z,18.39
2023-05-22T00:39:46.318Z,18.25
2023-05-22T00:43:48.012Z,18.32
2023-05-22T00:47:50.213Z,18.30
2023-05-22T00:51:51.780Z,18.12
2023-05-22T00:55:54.026Z,18.04
2023-05-22T00:59:56.265Z,18.21
2023-05-22T01:03:57.879Z,18.19
2023-05-22T01:07:59.400Z,18.22
2023-05-22T01:12:19.130Z,18.13
2023-05-22T01:16:32.133Z,17.94
2023-05-22T01:20:48.892Z,17.93
2023-05-22T01:25:21.077Z,18.01
2023-05-22T01:29:30.869Z,17.70
2023-05-22T01:33:41.803Z,17.69
2023-05-22T01:37:45.121Z,17.73
2023-05-22T01:41:47.209Z,17.62
2023-05-22T01:45:49.309Z,17.60
2023-05-22T01:49:51.963Z,17.67
2023-05-22T01:53:59.136Z,17.60
2023-05-22T01:58:17.531Z,17.56
2023-05-22T02:02:21.211Z,17.52
2023-05-22T02:06:24.987Z,17.51
2023-05-22T02:10:29.137Z,17.53
2023-05-22T02:14:31.560Z,17.56
2023-05-22T02:18:33.619Z,17.46
2023-05-22T02:22:35.075Z,17.20
2023-05-22T02:26:37.216Z,17.09
2023-05-22T02:30:38.938Z,17.15
2023-05-22T02:34:40.568Z,17.08
2023-05-22T02:38:42.060Z,17.01
2023-05-22T02:42:43.493Z,16.84
2023-05-22T02:46:45.697Z,16.89
2023-05-22T02:50:48.754Z,16.69
2023-05-22T02:54:50.265Z,16.83
2023-05-22T02:58:51.750Z,16.61
2023-05-22T03:02:53.364Z,16.61
2023-05-22T03:06:55.384Z,16.44
2023-05-22T03:10:57.693Z,16.49
2023-05-22T03:14:59.312Z,16.32
2023-05-22T03:19:11.007Z,16.20
2023-05-22T03:23:13.357Z,16.28
2023-05-22T03:27:17.050Z,16.16
2023-05-22T03:31:18.576Z,16.33
2023-05-22T03:35:20.078Z,16.22
2023-05-22T03:39:21.562Z,16.24
2023-05-22T03:43:23.029Z,16.20
2023-05-22T03:47:24.541Z,16.20
2023-05-22T03:51:26.106Z,16.39
2023-05-22T03:55:27.584Z,16.36
2023-05-22T03:59:29.075Z,16.38
2023-05-22T04:03:30.654Z,16.40
2023-05-22T04:07:32.579Z,16.43
2023-05-22T04:11:34.058Z,16.51
2023-05-22T04:15:36.450Z,16.42
2023-05-22T04:19:38.018Z,16.31
2023-05-22T04:23:43.168Z,16.41
2023-05-22T04:27:44.657Z,16.33
2023-05-22T04:31:46.253Z,16.55
2023-05-22T04:35:48.214Z,16.31
2023-05-22T04:39:52.873Z,16.37
2023-05-22T04:43:54.716Z,16.47
2023-05-22T04:47:57.048Z,16.40
2023-05-22T04:51:58.794Z,16.52
2023-05-22T04:56:00.827Z,16.57
2023-05-22T05:00:04.365Z,16.58
2023-05-22T05:04:06.101Z,16.75
2023-05-22T05:08:07.810Z,16.54
2023-05-22T05:12:09.342Z,16.76
2023-05-22T05:16:11.371Z,16.65
2023-05-22T05:20:14.504Z,16.74
2023-05-22T05:24:19.723Z,16.87
2023-05-22T05:28:21.297Z,16.83
2023-05-22T05:32:22.888Z,17.01
2023-05-22T05:36:28.243Z,17.04
2023-05-22T05:40:29.702Z,17.06
2023-05-22T05:44:31.291Z,17.00
2023-05-22T05:48:32.841Z,16.90
2023-05-22T05:52:34.438Z,17.03
2023-05-22T05:56:36.389Z,16.93
2023-05-22T06:00:39.132Z,17.22
2023-05-22T06:04:42.085Z,17.37
2023-05-22T06:08:44.189Z,17.63
2023-05-22T06:12:46.073Z,17.29
2023-05-22T06:16:47.756Z,17.45
2023-05-22T06:20:49.325Z,17.63
2023-05-22T06:24:51.243Z,17.91
2023-05-22T06:28:54.115Z,17.74
2023-05-22T06:32:55.723Z,18.10
2023-05-22T06:36:57.295Z,18.36
2023-05-22T06:40:58.839Z,18.18
2023-05-22T06:45:00.316Z,18.53
2023-05-22T06:49:02.084Z,18.68
2023-05-22T06:53:03.570Z,18.80
2023-05-22T06:57:06.984Z,19.02
2023-05-22T07:01:08.464Z,19.16
2023-05-22T07:05:09.994Z,19.30
2023-05-22T07:09:12.207Z,19.45
2023-05-22T07:13:13.769Z,19.11
2023-05-22T07:17:15.270Z,18.96
2023-05-22T07:21:16.858Z,19.17
2023-05-22T07:25:18.338Z,19.26
2023-05-22T07:29:21.936Z,19.74
2023-05-22T07:33:25.772Z,19.94
2023-05-22T07:37:27.271Z,20.25
2023-05-22T07:41:28.861Z,20.22
2023-05-22T07:45:30.803Z,20.65
2023-05-22T07:49:32.908Z,20.71
2023-05-22T07:53:35.472Z,21.03
2023-05-22T07:57:37.012Z,21.22
2023-05-22T08:01:39.656Z,21.21
2023-05-22T08:05:41.184Z,21.28
2023-05-22T08:09:45.973Z,21.32
2023-05-22T08:13:47.761Z,21.60
2023-05-22T08:17:49.455Z,21.55
2023-05-22T08:21:57.879Z,22.14
2023-05-22T08:25:59.392Z,22.38
2023-05-22T08:30:02.238Z,22.55
2023-05-22T08:34:04.862Z,22.41
2023-05-22T08:38:06.497Z,22.76
2023-05-22T08:42:08.272Z,23.12
2023-05-22T08:46:10.490Z,23.20
2023-05-22T08:50:12.414Z,23.03
2023-05-22T08:54:18.471Z,23.39
2023-05-22T08:58:21.837Z,23.28
2023-05-22T09:02:24.262Z,23.60
2023-05-22T09:06:26.271Z,23.94
2023-05-22T09:10:27.761Z,23.92
2023-05-22T09:14:38.297Z,24.14
2023-05-22T09:18:41.224Z,24.22
2023-05-22T09:22:42.711Z,24.52
2023-05-22T09:26:44.240Z,24.42
2023-05-22T09:30:49.565Z,24.80
2023-05-22T09:34:51.389Z,24.53
2023-05-22T09:38:54.075Z,24.53
2023-05-22T09:42:55.683Z,24.40
2023-05-22T09:46:57.352Z,23.93
2023-05-22T09:51:00.203Z,24.08
2023-05-22T09:55:09.413Z,24.17
2023-05-22T09:59:13.742Z,24.62
2023-05-22T10:03:17.306Z,25.11
2023-05-22T10:07:30.088Z,24.78
2023-05-22T10:11:33.375Z,24.80
2023-05-22T10:15:35.921Z,24.65
2023-05-22T10:19:40.442Z,24.69
2023-05-22T10:23:44.229Z,24.68
2023-05-22T10:27:46.062Z,25.33
2023-05-22T10:31:53.489Z,25.58
2023-05-22T10:36:08.630Z,25.77
2023-05-22T10:40:13.431Z,26.47
2023-05-22T10:44:14.994Z,26.16
2023-05-22T10:48:22.143Z,25.91
2023-05-22T10:52:23.642Z,25.81
2023-05-22T10:56:32.950Z,26.33
2023-05-22T11:00:38.001Z,26.75
2023-05-22T11:04:39.555Z,27.42
2023-05-22T11:08:41.124Z,27.44
2023-05-22T11:12:43.977Z,26.99
2023-05-22T11:16:45.744Z,27.07
2023-05-22T11:20:47.688Z,26.89
2023-05-22T11:24:49.213Z,26.61
2023-05-22T11:28:53.298Z,26.28
2023-05-22T11:32:54.812Z,26.07
2023-05-22T11:37:00.053Z,25.91
2023-05-22T11:41:01.554Z,26.01
2023-05-22T11:45:04.679Z,26.31
2023-05-22T11:49:06.586Z,26.18
2023-05-22T11:53:08.216Z,25.79
2023-05-22T11:57:09.895Z,26.20
2023-05-22T12:01:11.486Z,26.07
2023-05-22T12:05:13.936Z,26.41
2023-05-22T12:09:15.491Z,27.02
2023-05-22T12:13:24.982Z,27.05
2023-05-22T12:17:28.631Z,27.50
2023-05-22T12:21:31.547Z,27.60
2023-05-22T12:25:37.030Z,28.20
2023-05-22T12:29:39.629Z,27.90
2023-05-22T12:33:41.193Z,27.71
2023-05-22T12:37:51.748Z,27.78
2023-05-22T12:41:53.404Z,27.58
2023-05-22T12:45:54.946Z,28.68
2023-05-22T12:49:56.437Z,28.97
2023-05-22T12:53:58.995Z,29.99
2023-05-22T12:58:00.763Z,29.94
2023-05-22T13:02:03.287Z,29.69
2023-05-22T13:06:04.820Z,29.03
2023-05-22T13:10:07.381Z,29.62
2023-05-22T13:14:08.819Z,30.20
2023-05-22T13:18:11.752Z,30.57
2023-05-22T13:22:14.786Z,30.11
2023-05-22T13:26:16.270Z,30.20
2023-05-22T13:30:17.921Z,31.09
2023-05-22T13:34:19.572Z,30.87
2023-05-22T13:38:21.240Z,30.93
2023-05-22T13:42:22.792Z,30.93
2023-05-22T13:46:24.336Z,30.20
2023-05-22T13:50:25.847Z,30.83
2023-05-22T13:54:27.824Z,30.06
2023-05-22T13:58:29.314Z,30.33
2023-05-22T14:02:30.852Z,30.32
2023-05-22T14:06:32.530Z,29.52
2023-05-22T14:10:35.796Z,29.03
2023-05-22T14:14:37.275Z,28.81
2023-05-22T14:18:41.402Z,29.56
2023-05-22T14:22:56.031Z,29.26
2023-05-22T14:26:58.625Z,29.43
2023-05-22T14:31:00.157Z,29.28
2023-05-22T14:35:01.797Z,29.48
2023-05-22T14:39:03.290Z,29.79
2023-05-22T14:43:04.766Z,31.13
2023-05-22T14:47:06.329Z,30.28
2023-05-22T14:51:07.855Z,30.42
2023-05-22T14:55:09.688Z,29.87
2023-05-22T14:59:14.348Z,30.10
2023-05-22T15:03:16.767Z,30.53
2023-05-22T15:07:19.746Z,31.66
2023-05-22T15:11:21.941Z,31.23
2023-05-22T15:15:23.563Z,29.98
2023-05-22T15:19:26.175Z,30.19
2023-05-22T15:23:27.712Z,29.02
2023-05-22T15:27:29.238Z,29.06
2023-05-22T15:31:31.541Z,29.76
2023-05-22T15:35:33.032Z,29.04
2023-05-22T15:39:34.483Z,28.91
2023-05-22T15:43:36.095Z,29.32
2023-05-22T15:47:37.612Z,29.39
2023-05-22T15:51:39.152Z,28.85
2023-05-22T15:55:40.844Z,29.52
2023-05-22T15:59:42.578Z,28.74
2023-05-22T16:03:44.120Z,28.02
2023-05-22T16:07:45.758Z,27.45
2023-05-22T16:11:47.299Z,27.26
2023-05-22T16:15:48.837Z,28.25
2023-05-22T16:19:51.319Z,27.93
2023-05-22T16:23:52.848Z,28.12
2023-05-22T16:27:54.387Z,28.30
2023-05-22T16:31:56.825Z,27.65
2023-05-22T16:35:58.625Z,26.91
2023-05-22T16:40:00.183Z,27.46
2023-05-22T16:44:01.800Z,27.30
2023-05-22T16:48:03.399Z,27.61
2023-05-22T16:52:05.198Z,26.95
2023-05-22T16:56:06.915Z,26.47
2023-05-22T17:00:10.893Z,25.99
2023-05-22T17:04:14.828Z,25.73
2023-05-22T17:08:16.519Z,25.80
2023-05-22T17:12:18.114Z,26.68
2023-05-22T17:16:19.717Z,27.75
2023-05-22T17:20:22.972Z,27.84
2023-05-22T17:24:24.626Z,27.49
2023-05-22T17:28:28.888Z,27.37
2023-05-22T17:32:30.482Z,26.67
2023-05-22T17:36:32.653Z,26.64
2023-05-22T17:40:44.176Z,26.37
2023-05-22T17:44:46.654Z,25.93
2023-05-22T17:48:48.259Z,25.54
2023-05-22T17:52:49.743Z,24.78
2023-05-22T17:56:51.253Z,24.48
2023-05-22T18:00:53.130Z,24.39
2023-05-22T18:04:54.667Z,23.91
2023-05-22T18:08:56.157Z,24.08
2023-05-22T18:12:57.848Z,23.85
2023-05-22T18:16:59.524Z,23.91
2023-05-22T18:21:02.776Z,23.41
2023-05-22T18:25:05.781Z,23.18
2023-05-22T18:29:07.535Z,22.96
2023-05-22T18:33:09.115Z,23.03
2023-05-22T18:37:10.920Z,22.67
2023-05-22T18:41:12.658Z,22.61
2023-05-22T18:45:14.407Z,22.46
2023-05-22T18:49:16.205Z,22.70
2023-05-22T18:53:18.199Z,22.87
2023-05-22T18:57:19.678Z,22.62
2023-05-22T19:01:21.356Z,22.48
2023-05-22T19:05:23.054Z,22.20
2023-05-22T19:09:24.636Z,21.43
2023-05-22T19:13:26.591Z,21.18
2023-05-22T19:17:28.219Z,21.53
2023-05-22T19:21:29.860Z,21.30
2023-05-22T19:25:32.044Z,21.14
2023-05-22T19:29:33.638Z,20.86
2023-05-22T19:33:35.155Z,20.73
2023-05-22T19:37:36.958Z,20.78
2023-05-22T19:41:38.423Z,20.75
2023-05-22T19:45:40.313Z,20.73
2023-05-22T19:49:41.850Z,20.73
2023-05-22T19:53:44.264Z,20.56
2023-05-22T19:57:45.802Z,20.44
2023-05-22T20:01:48.170Z,20.33
2023-05-22T20:05:53.540Z,20.25
2023-05-22T20:09:55.059Z,20.08
2023-05-22T20:13:56.711Z,20.22
2023-05-22T20:17:58.278Z,20.07
2023-05-22T20:22:00.972Z,19.76
2023-05-22T20:26:02.802Z,19.94
2023-05-22T20:30:04.936Z,20.03
2023-05-22T20:34:08.041Z,20.06
2023-05-22T20:38:09.835Z,19.85
2023-05-22T20:42:12.964Z,19.89
2023-05-22T20:46:14.626Z,19.78
2023-05-22T20:50:16.217Z,19.45
2023-05-22T20:54:18.238Z,19.36
2023-05-22T20:58:19.931Z,19.48
2023-05-22T21:02:21.471Z,19.53
2023-05-22T21:06:27.011Z,18.92
2023-05-22T21:10:28.467Z,18.96
2023-05-22T21:14:30.351Z,18.65
2023-05-22T21:18:31.827Z,18.56
2023-05-22T21:22:33.263Z,18.74
2023-05-22T21:26:36.228Z,18.80
2023-05-22T21:30:37.895Z,18.69
2023-05-22T21:34:39.484Z,18.68
2023-05-22T21:38:41.134Z,18.68
2023-05-22T21:42:47.070Z,18.56
2023-05-22T21:46:48.921Z,18.44
2023-05-22T21:50:50.501Z,18.58
2023-05-22T21:54:51.995Z,18.42
2023-05-22T21:58:53.646Z,18.50
2023-05-22T22:02:57.231Z,18.35
2023-05-22T22:06:58.812Z,18.21
2023-05-22T22:11:00.408Z,18.09
2023-05-22T22:15:02.376Z,18.12
2023-05-22T22:19:04.713Z,18.01
2023-05-22T22:23:06.206Z,18.23
2023-05-22T22:27:07.799Z,18.19
2023-05-22T22:31:09.749Z,18.19
2023-05-22T22:35:11.405Z,18.27
2023-05-22T22:39:12.949Z,18.16
2023-05-22T22:43:14.449Z,18.11
2023-05-22T22:47:15.950Z,18.20
2023-05-22T22:51:17.543Z,18.53
2023-05-22T22:55:19.215Z,18.07
2023-05-22T22:59:21.040Z,18.30
2023-05-22T23:03:22.731Z,18.03
2023-05-22T23:07:24.251Z,18.18
2023-05-22T23:11:28.025Z,17.93
2023-05-22T23:15:29.856Z,17.80
2023-05-22T23:19:31.612Z,17.87
2023-05-22T23:23:33.262Z,17.72
2023-05-22T23:27:34.842Z,17.75
2023-05-22T23:31:36.657Z,17.78
2023-05-22T23:35:38.408Z,17.61
2023-05-22T23:39:39.977Z,17.34
2023-05-22T23:43:42.439Z,17.47
2023-05-22T23:47:43.900Z,17.45
2023-05-22T23:51:45.429Z,17.61
2023-05-22T23:55:46.926Z,17.58
2023-05-22T23:59:48.527Z,17.63
